sensor_id;sensor_type;location;lat;lon;timestamp;P1;durP1;ratioP1;P2;durP2;ratioP2
79578;SDS011;69051;52.406;5.280;2023-05-17T00:01:46;20.20;;;4.70;;
79578;SDS011;69051;52.406;5.280;2023-05-17T00:04:13;19.77;;;5.55;;
79578;SDS011;69051;52.406;5.280;2023-05-17T00:06:39;22.55;;;4.53;;
79578;SDS011;69051;52.406;5.280;2023-05-17T00:09:06;18.63;;;5.35;;
79578;SDS011;69051;52.406;5.280;2023-05-17T00:11:32;31.13;;;5.80;;
79578;SDS011;69051;52.406;5.280;2023-05-17T00:13:59;26.92;;;5.18;;
79578;SDS011;69051;52.406;5.280;2023-05-17T00:16:25;19.92;;;4.47;;
79578;SDS011;69051;52.406;5.280;2023-05-17T00:18:52;21.98;;;5.18;;
79578;SDS011;69051;52.406;5.280;2023-05-17T00:21:18;27.73;;;4.78;;
79578;SDS011;69051;52.406;5.280;2023-05-17T00:23:45;30.23;;;5.20;;
79578;SDS011;69051;52.406;5.280;2023-05-17T00:26:11;16.35;;;4.80;;
79578;SDS011;69051;52.406;5.280;2023-05-17T00:28:39;27.73;;;5.35;;
79578;SDS011;69051;52.406;5.280;2023-05-17T00:31:05;22.40;;;5.20;;
79578;SDS011;69051;52.406;5.280;2023-05-17T00:33:32;22.27;;;4.57;;
79578;SDS011;69051;52.406;5.280;2023-05-17T00:35:58;15.63;;;4.85;;
79578;SDS011;69051;52.406;5.280;2023-05-17T00:38:25;26.10;;;4.75;;
79578;SDS011;69051;52.406;5.280;2023-05-17T00:40:51;25.17;;;6.40;;
79578;SDS011;69051;52.406;5.280;2023-05-17T00:43:19;27.20;;;4.65;;
79578;SDS011;69051;52.406;5.280;2023-05-17T00:45:45;23.25;;;4.38;;
79578;SDS011;69051;52.406;5.280;2023-05-17T00:48:13;27.23;;;7.38;;
79578;SDS011;69051;52.406;5.280;2023-05-17T00:50:40;26.70;;;4.80;;
79578;SDS011;69051;52.406;5.280;2023-05-17T00:53:07;22.83;;;4.63;;
79578;SDS011;69051;52.406;5.280;2023-05-17T00:55:34;21.02;;;4.45;;
79578;SDS011;69051;52.406;5.280;2023-05-17T00:58:02;19.33;;;4.95;;
79578;SDS011;69051;52.406;5.280;2023-05-17T01:00:28;23.75;;;5.35;;
79578;SDS011;69051;52.406;5.280;2023-05-17T01:02:55;23.75;;;4.70;;
79578;SDS011;69051;52.406;5.280;2023-05-17T01:05:22;22.55;;;5.30;;
79578;SDS011;69051;52.406;5.280;2023-05-17T01:07:48;21.42;;;5.20;;
79578;SDS011;69051;52.406;5.280;2023-05-17T01:10:15;25.80;;;4.75;;
79578;SDS011;69051;52.406;5.280;2023-05-17T01:15:32;23.95;;;4.78;;
79578;SDS011;69051;52.406;5.280;2023-05-17T01:20:36;23.25;;;5.28;;
79578;SDS011;69051;52.406;5.280;2023-05-17T01:26:17;22.95;;;4.82;;
79578;SDS011;69051;52.406;5.280;2023-05-17T01:28:48;21.80;;;5.40;;
79578;SDS011;69051;52.406;5.280;2023-05-17T01:31:18;20.55;;;4.53;;
79578;SDS011;69051;52.406;5.280;2023-05-17T01:33:45;20.58;;;4.57;;
79578;SDS011;69051;52.406;5.280;2023-05-17T01:36:12;21.42;;;4.20;;
79578;SDS011;69051;52.406;5.280;2023-05-17T01:38:38;18.02;;;4.40;;
79578;SDS011;69051;52.406;5.280;2023-05-17T01:44:39;20.90;;;4.30;;
79578;SDS011;69051;52.406;5.280;2023-05-17T01:46:41;16.38;;;4.93;;
79578;SDS011;69051;52.406;5.280;2023-05-17T01:54:37;19.77;;;4.45;;
79578;SDS011;69051;52.406;5.280;2023-05-17T01:57:07;23.73;;;3.60;;
79578;SDS011;69051;52.406;5.280;2023-05-17T01:59:35;20.15;;;3.53;;
79578;SDS011;69051;52.406;5.280;2023-05-17T02:02:03;19.58;;;3.17;;
79578;SDS011;69051;52.406;5.280;2023-05-17T02:04:34;17.33;;;3.20;;
79578;SDS011;69051;52.406;5.280;2023-05-17T02:07:01;13.63;;;2.75;;
79578;SDS011;69051;52.406;5.280;2023-05-17T02:09:28;20.55;;;3.35;;
79578;SDS011;69051;52.406;5.280;2023-05-17T02:11:55;19.33;;;2.83;;
79578;SDS011;69051;52.406;5.280;2023-05-17T02:14:22;16.33;;;2.78;;
79578;SDS011;69051;52.406;5.280;2023-05-17T02:16:48;13.88;;;2.72;;
79578;SDS011;69051;52.406;5.280;2023-05-17T02:19:15;23.95;;;4.07;;
79578;SDS011;69051;52.406;5.280;2023-05-17T02:21:41;17.20;;;3.25;;
79578;SDS011;69051;52.406;5.280;2023-05-17T02:24:08;22.35;;;3.00;;
79578;SDS011;69051;52.406;5.280;2023-05-17T02:26:34;16.48;;;2.90;;
79578;SDS011;69051;52.406;5.280;2023-05-17T02:29:01;14.77;;;2.78;;
79578;SDS011;69051;52.406;5.280;2023-05-17T02:31:27;20.38;;;2.65;;
79578;SDS011;69051;52.406;5.280;2023-05-17T02:33:54;19.33;;;2.78;;
79578;SDS011;69051;52.406;5.280;2023-05-17T02:36:21;14.88;;;2.60;;
79578;SDS011;69051;52.406;5.280;2023-05-17T02:38:47;14.93;;;2.35;;
79578;SDS011;69051;52.406;5.280;2023-05-17T02:41:14;15.95;;;2.60;;
79578;SDS011;69051;52.406;5.280;2023-05-17T02:43:40;18.55;;;2.88;;
79578;SDS011;69051;52.406;5.280;2023-05-17T02:46:07;14.02;;;2.40;;
79578;SDS011;69051;52.406;5.280;2023-05-17T02:48:34;20.27;;;2.88;;
79578;SDS011;69051;52.406;5.280;2023-05-17T02:51:00;15.68;;;2.47;;
79578;SDS011;69051;52.406;5.280;2023-05-17T02:53:27;19.83;;;2.45;;
79578;SDS011;69051;52.406;5.280;2023-05-17T02:55:53;18.30;;;2.38;;
79578;SDS011;69051;52.406;5.280;2023-05-17T02:58:23;20.63;;;2.42;;
79578;SDS011;69051;52.406;5.280;2023-05-17T03:00:50;7.78;;;1.75;;
79578;SDS011;69051;52.406;5.280;2023-05-17T03:03:17;15.98;;;1.95;;
79578;SDS011;69051;52.406;5.280;2023-05-17T03:05:43;16.30;;;3.22;;
79578;SDS011;69051;52.406;5.280;2023-05-17T03:08:10;22.05;;;3.67;;
79578;SDS011;69051;52.406;5.280;2023-05-17T03:10:36;17.52;;;2.58;;
79578;SDS011;69051;52.406;5.280;2023-05-17T03:13:02;26.05;;;3.63;;
79578;SDS011;69051;52.406;5.280;2023-05-17T03:15:29;15.27;;;2.15;;
79578;SDS011;69051;52.406;5.280;2023-05-17T03:17:56;15.43;;;2.85;;
79578;SDS011;69051;52.406;5.280;2023-05-17T03:20:22;15.77;;;2.22;;
79578;SDS011;69051;52.406;5.280;2023-05-17T03:22:49;20.63;;;2.88;;
79578;SDS011;69051;52.406;5.280;2023-05-17T03:25:15;19.00;;;2.70;;
79578;SDS011;69051;52.406;5.280;2023-05-17T03:27:42;19.02;;;2.45;;
79578;SDS011;69051;52.406;5.280;2023-05-17T03:30:09;18.67;;;2.28;;
79578;SDS011;69051;52.406;5.280;2023-05-17T03:32:37;17.60;;;2.25;;
79578;SDS011;69051;52.406;5.280;2023-05-17T03:35:04;21.77;;;3.22;;
79578;SDS011;69051;52.406;5.280;2023-05-17T03:37:32;18.85;;;2.83;;
79578;SDS011;69051;52.406;5.280;2023-05-17T03:39:58;14.75;;;2.42;;
79578;SDS011;69051;52.406;5.280;2023-05-17T03:42:24;14.43;;;2.92;;
79578;SDS011;69051;52.406;5.280;2023-05-17T03:44:52;16.17;;;2.15;;
79578;SDS011;69051;52.406;5.280;2023-05-17T03:47:19;17.17;;;2.13;;
79578;SDS011;69051;52.406;5.280;2023-05-17T03:49:49;17.42;;;2.63;;
79578;SDS011;69051;52.406;5.280;2023-05-17T03:52:15;18.25;;;2.85;;
79578;SDS011;69051;52.406;5.280;2023-05-17T03:54:42;20.20;;;2.60;;
79578;SDS011;69051;52.406;5.280;2023-05-17T03:57:08;14.90;;;3.05;;
79578;SDS011;69051;52.406;5.280;2023-05-17T03:59:34;22.83;;;2.60;;
79578;SDS011;69051;52.406;5.280;2023-05-17T04:02:01;19.13;;;2.63;;
79578;SDS011;69051;52.406;5.280;2023-05-17T04:04:27;19.30;;;2.97;;
79578;SDS011;69051;52.406;5.280;2023-05-17T04:06:54;20.77;;;1.95;;
79578;SDS011;69051;52.406;5.280;2023-05-17T04:09:20;18.67;;;3.40;;
79578;SDS011;69051;52.406;5.280;2023-05-17T04:11:47;14.60;;;2.58;;
79578;SDS011;69051;52.406;5.280;2023-05-17T04:14:13;15.70;;;2.38;;
79578;SDS011;69051;52.406;5.280;2023-05-17T04:16:40;22.48;;;3.13;;
79578;SDS011;69051;52.406;5.280;2023-05-17T04:19:06;22.95;;;2.90;;
79578;SDS011;69051;52.406;5.280;2023-05-17T04:21:33;21.48;;;2.53;;
79578;SDS011;69051;52.406;5.280;2023-05-17T04:23:59;22.02;;;3.17;;
79578;SDS011;69051;52.406;5.280;2023-05-17T04:26:27;15.45;;;2.80;;
79578;SDS011;69051;52.406;5.280;2023-05-17T04:28:54;20.92;;;2.38;;
79578;SDS011;69051;52.406;5.280;2023-05-17T04:31:20;10.50;;;2.05;;
79578;SDS011;69051;52.406;5.280;2023-05-17T04:33:47;12.63;;;2.30;;
79578;SDS011;69051;52.406;5.280;2023-05-17T04:36:14;15.40;;;2.25;;
79578;SDS011;69051;52.406;5.280;2023-05-17T04:38:40;21.25;;;2.22;;
79578;SDS011;69051;52.406;5.280;2023-05-17T04:41:07;14.25;;;2.83;;
79578;SDS011;69051;52.406;5.280;2023-05-17T04:43:34;16.77;;;2.72;;
79578;SDS011;69051;52.406;5.280;2023-05-17T04:46:01;17.52;;;2.20;;
79578;SDS011;69051;52.406;5.280;2023-05-17T04:48:29;18.27;;;1.98;;
79578;SDS011;69051;52.406;5.280;2023-05-17T04:50:56;16.33;;;2.00;;
79578;SDS011;69051;52.406;5.280;2023-05-17T04:53:25;9.93;;;1.63;;
79578;SDS011;69051;52.406;5.280;2023-05-17T04:55:52;14.77;;;2.25;;
79578;SDS011;69051;52.406;5.280;2023-05-17T04:58:18;12.63;;;2.40;;
79578;SDS011;69051;52.406;5.280;2023-05-17T05:00:45;10.93;;;2.20;;
79578;SDS011;69051;52.406;5.280;2023-05-17T05:03:11;11.88;;;2.00;;
79578;SDS011;69051;52.406;5.280;2023-05-17T05:05:38;9.25;;;1.75;;
79578;SDS011;69051;52.406;5.280;2023-05-17T05:08:04;10.25;;;2.25;;
79578;SDS011;69051;52.406;5.280;2023-05-17T05:10:31;11.57;;;1.83;;
79578;SDS011;69051;52.406;5.280;2023-05-17T05:12:57;11.95;;;2.03;;
79578;SDS011;69051;52.406;5.280;2023-05-17T05:15:24;15.90;;;1.65;;
79578;SDS011;69051;52.406;5.280;2023-05-17T05:17:51;11.85;;;1.98;;
79578;SDS011;69051;52.406;5.280;2023-05-17T05:20:17;16.85;;;1.90;;
79578;SDS011;69051;52.406;5.280;2023-05-17T05:22:44;10.85;;;2.00;;
79578;SDS011;69051;52.406;5.280;2023-05-17T05:25:10;7.43;;;1.98;;
79578;SDS011;69051;52.406;5.280;2023-05-17T05:27:37;11.10;;;1.75;;
79578;SDS011;69051;52.406;5.280;2023-05-17T05:30:04;18.27;;;2.50;;
79578;SDS011;69051;52.406;5.280;2023-05-17T05:32:30;10.77;;;1.60;;
79578;SDS011;69051;52.406;5.280;2023-05-17T05:34:57;14.65;;;2.05;;
79578;SDS011;69051;52.406;5.280;2023-05-17T05:37:23;14.25;;;2.08;;
79578;SDS011;69051;52.406;5.280;2023-05-17T05:39:50;13.65;;;1.75;;
79578;SDS011;69051;52.406;5.280;2023-05-17T05:42:17;14.55;;;2.40;;
79578;SDS011;69051;52.406;5.280;2023-05-17T05:44:45;9.73;;;2.15;;
79578;SDS011;69051;52.406;5.280;2023-05-17T05:47:11;17.55;;;1.65;;
79578;SDS011;69051;52.406;5.280;2023-05-17T05:49:38;11.57;;;1.95;;
79578;SDS011;69051;52.406;5.280;2023-05-17T05:52:04;10.57;;;1.63;;
79578;SDS011;69051;52.406;5.280;2023-05-17T05:54:31;9.38;;;1.73;;
79578;SDS011;69051;52.406;5.280;2023-05-17T05:56:57;19.38;;;2.28;;
79578;SDS011;69051;52.406;5.280;2023-05-17T05:59:26;13.40;;;2.47;;
79578;SDS011;69051;52.406;5.280;2023-05-17T06:01:52;9.80;;;2.13;;
79578;SDS011;69051;52.406;5.280;2023-05-17T06:04:19;14.65;;;1.60;;
79578;SDS011;69051;52.406;5.280;2023-05-17T06:06:55;15.38;;;2.63;;
79578;SDS011;69051;52.406;5.280;2023-05-17T06:09:21;13.82;;;1.88;;
79578;SDS011;69051;52.406;5.280;2023-05-17T06:11:49;9.38;;;2.22;;
79578;SDS011;69051;52.406;5.280;2023-05-17T06:14:17;13.75;;;2.25;;
79578;SDS011;69051;52.406;5.280;2023-05-17T06:16:44;8.55;;;1.85;;
79578;SDS011;69051;52.406;5.280;2023-05-17T06:19:13;12.63;;;1.70;;
79578;SDS011;69051;52.406;5.280;2023-05-17T06:21:42;10.00;;;1.95;;
79578;SDS011;69051;52.406;5.280;2023-05-17T06:24:09;9.98;;;1.65;;
79578;SDS011;69051;52.406;5.280;2023-05-17T06:26:35;13.43;;;2.15;;
79578;SDS011;69051;52.406;5.280;2023-05-17T06:29:02;11.75;;;1.90;;
79578;SDS011;69051;52.406;5.280;2023-05-17T06:31:29;9.95;;;1.52;;
79578;SDS011;69051;52.406;5.280;2023-05-17T06:33:55;14.40;;;1.60;;
79578;SDS011;69051;52.406;5.280;2023-05-17T06:36:21;10.40;;;1.98;;
79578;SDS011;69051;52.406;5.280;2023-05-17T06:38:50;11.75;;;2.38;;
79578;SDS011;69051;52.406;5.280;2023-05-17T06:41:16;8.52;;;1.70;;
79578;SDS011;69051;52.406;5.280;2023-05-17T06:43:43;14.63;;;2.30;;
79578;SDS011;69051;52.406;5.280;2023-05-17T06:46:10;17.27;;;2.17;;
79578;SDS011;69051;52.406;5.280;2023-05-17T06:48:37;10.98;;;1.95;;
79578;SDS011;69051;52.406;5.280;2023-05-17T06:51:04;5.82;;;1.38;;
79578;SDS011;69051;52.406;5.280;2023-05-17T06:53:30;7.75;;;1.65;;
79578;SDS011;69051;52.406;5.280;2023-05-17T06:55:57;11.88;;;2.15;;
79578;SDS011;69051;52.406;5.280;2023-05-17T06:58:23;17.30;;;1.95;;
79578;SDS011;69051;52.406;5.280;2023-05-17T07:00:50;8.55;;;2.17;;
79578;SDS011;69051;52.406;5.280;2023-05-17T07:03:16;8.50;;;1.63;;
79578;SDS011;69051;52.406;5.280;2023-05-17T07:05:43;12.38;;;2.00;;
79578;SDS011;69051;52.406;5.280;2023-05-17T07:08:10;11.38;;;1.67;;
79578;SDS011;69051;52.406;5.280;2023-05-17T07:10:36;11.70;;;1.60;;
79578;SDS011;69051;52.406;5.280;2023-05-17T07:13:02;8.30;;;1.90;;
79578;SDS011;69051;52.406;5.280;2023-05-17T07:15:29;11.00;;;2.35;;
79578;SDS011;69051;52.406;5.280;2023-05-17T07:17:56;12.75;;;2.10;;
79578;SDS011;69051;52.406;5.280;2023-05-17T07:20:24;12.57;;;1.85;;
79578;SDS011;69051;52.406;5.280;2023-05-17T07:22:50;10.07;;;1.70;;
79578;SDS011;69051;52.406;5.280;2023-05-17T07:25:17;7.50;;;1.20;;
79578;SDS011;69051;52.406;5.280;2023-05-17T07:27:46;19.30;;;2.33;;
79578;SDS011;69051;52.406;5.280;2023-05-17T07:30:12;10.68;;;1.42;;
79578;SDS011;69051;52.406;5.280;2023-05-17T07:32:41;9.75;;;1.60;;
79578;SDS011;69051;52.406;5.280;2023-05-17T07:35:07;6.13;;;1.27;;
79578;SDS011;69051;52.406;5.280;2023-05-17T07:37:34;6.22;;;1.50;;
79578;SDS011;69051;52.406;5.280;2023-05-17T07:40:01;9.70;;;1.30;;
79578;SDS011;69051;52.406;5.280;2023-05-17T07:42:27;8.32;;;1.50;;
79578;SDS011;69051;52.406;5.280;2023-05-17T07:44:54;13.60;;;2.03;;
79578;SDS011;69051;52.406;5.280;2023-05-17T07:47:20;17.85;;;2.30;;
79578;SDS011;69051;52.406;5.280;2023-05-17T07:49:47;9.60;;;1.65;;
79578;SDS011;69051;52.406;5.280;2023-05-17T07:52:13;9.52;;;1.60;;
79578;SDS011;69051;52.406;5.280;2023-05-17T07:54:39;10.57;;;1.90;;
79578;SDS011;69051;52.406;5.280;2023-05-17T07:57:06;8.10;;;1.30;;
79578;SDS011;69051;52.406;5.280;2023-05-17T07:59:32;11.85;;;1.90;;
79578;SDS011;69051;52.406;5.280;2023-05-17T08:01:59;11.65;;;1.77;;
79578;SDS011;69051;52.406;5.280;2023-05-17T08:04:25;18.08;;;2.33;;
79578;SDS011;69051;52.406;5.280;2023-05-17T08:06:52;9.65;;;1.42;;
79578;SDS011;69051;52.406;5.280;2023-05-17T08:09:20;8.88;;;1.65;;
79578;SDS011;69051;52.406;5.280;2023-05-17T08:11:46;9.40;;;1.77;;
79578;SDS011;69051;52.406;5.280;2023-05-17T08:14:13;8.15;;;1.58;;
79578;SDS011;69051;52.406;5.280;2023-05-17T08:16:41;9.15;;;1.33;;
79578;SDS011;69051;52.406;5.280;2023-05-17T08:19:09;10.77;;;1.52;;
79578;SDS011;69051;52.406;5.280;2023-05-17T08:21:39;7.07;;;1.35;;
79578;SDS011;69051;52.406;5.280;2023-05-17T08:24:06;12.20;;;1.77;;
79578;SDS011;69051;52.406;5.280;2023-05-17T08:26:33;11.00;;;1.67;;
79578;SDS011;69051;52.406;5.280;2023-05-17T08:29:00;10.18;;;2.03;;
79578;SDS011;69051;52.406;5.280;2023-05-17T08:31:27;10.13;;;1.58;;
79578;SDS011;69051;52.406;5.280;2023-05-17T08:33:54;8.27;;;1.67;;
79578;SDS011;69051;52.406;5.280;2023-05-17T08:36:20;6.72;;;1.58;;
79578;SDS011;69051;52.406;5.280;2023-05-17T08:38:47;11.63;;;1.60;;
79578;SDS011;69051;52.406;5.280;2023-05-17T08:41:14;9.38;;;2.00;;
79578;SDS011;69051;52.406;5.280;2023-05-17T08:43:41;7.65;;;1.27;;
79578;SDS011;69051;52.406;5.280;2023-05-17T08:46:09;7.45;;;1.30;;
79578;SDS011;69051;52.406;5.280;2023-05-17T08:48:35;11.85;;;1.70;;
79578;SDS011;69051;52.406;5.280;2023-05-17T08:51:07;8.82;;;1.45;;
79578;SDS011;69051;52.406;5.280;2023-05-17T08:53:35;8.52;;;1.90;;
79578;SDS011;69051;52.406;5.280;2023-05-17T08:56:02;5.35;;;1.15;;
79578;SDS011;69051;52.406;5.280;2023-05-17T08:58:30;8.82;;;1.13;;
79578;SDS011;69051;52.406;5.280;2023-05-17T09:01:19;7.45;;;1.65;;
79578;SDS011;69051;52.406;5.280;2023-05-17T09:03:50;7.28;;;1.38;;
79578;SDS011;69051;52.406;5.280;2023-05-17T09:06:16;8.82;;;1.33;;
79578;SDS011;69051;52.406;5.280;2023-05-17T09:08:45;12.52;;;1.92;;
79578;SDS011;69051;52.406;5.280;2023-05-17T09:11:12;11.68;;;1.77;;
79578;SDS011;69051;52.406;5.280;2023-05-17T09:14:04;9.05;;;1.58;;
79578;SDS011;69051;52.406;5.280;2023-05-17T09:16:32;9.07;;;1.52;;
79578;SDS011;69051;52.406;5.280;2023-05-17T09:19:01;8.65;;;1.55;;
79578;SDS011;69051;52.406;5.280;2023-05-17T09:21:30;8.85;;;1.40;;
79578;SDS011;69051;52.406;5.280;2023-05-17T09:23:57;11.00;;;1.30;;
79578;SDS011;69051;52.406;5.280;2023-05-17T09:26:37;11.02;;;1.80;;
79578;SDS011;69051;52.406;5.280;2023-05-17T09:29:06;10.13;;;1.45;;
79578;SDS011;69051;52.406;5.280;2023-05-17T09:31:33;8.50;;;2.20;;
79578;SDS011;69051;52.406;5.280;2023-05-17T09:34:00;10.90;;;1.50;;
79578;SDS011;69051;52.406;5.280;2023-05-17T09:36:27;13.50;;;1.90;;
79578;SDS011;69051;52.406;5.280;2023-05-17T09:38:58;7.18;;;1.50;;
79578;SDS011;69051;52.406;5.280;2023-05-17T09:41:27;11.55;;;1.73;;
79578;SDS011;69051;52.406;5.280;2023-05-17T09:44:01;7.55;;;1.48;;
79578;SDS011;69051;52.406;5.280;2023-05-17T09:46:32;7.50;;;1.40;;
79578;SDS011;69051;52.406;5.280;2023-05-17T09:49:04;7.88;;;1.52;;
79578;SDS011;69051;52.406;5.280;2023-05-17T09:51:34;11.05;;;1.73;;
79578;SDS011;69051;52.406;5.280;2023-05-17T09:54:02;8.50;;;1.75;;
79578;SDS011;69051;52.406;5.280;2023-05-17T09:56:29;12.07;;;1.73;;
79578;SDS011;69051;52.406;5.280;2023-05-17T09:58:57;10.05;;;1.77;;
79578;SDS011;69051;52.406;5.280;2023-05-17T10:01:26;8.75;;;1.77;;
79578;SDS011;69051;52.406;5.280;2023-05-17T10:03:54;12.80;;;1.70;;
79578;SDS011;69051;52.406;5.280;2023-05-17T10:06:23;12.10;;;2.40;;
79578;SDS011;69051;52.406;5.280;2023-05-17T10:09:11;11.57;;;1.85;;
79578;SDS011;69051;52.406;5.280;2023-05-17T10:11:39;9.85;;;1.60;;
79578;SDS011;69051;52.406;5.280;2023-05-17T10:14:22;12.82;;;1.45;;
79578;SDS011;69051;52.406;5.280;2023-05-17T10:16:57;12.20;;;2.00;;
79578;SDS011;69051;52.406;5.280;2023-05-17T10:19:24;9.57;;;2.00;;
79578;SDS011;69051;52.406;5.280;2023-05-17T10:21:51;9.85;;;1.48;;
79578;SDS011;69051;52.406;5.280;2023-05-17T10:24:18;13.95;;;1.40;;
79578;SDS011;69051;52.406;5.280;2023-05-17T10:26:46;7.97;;;1.35;;
79578;SDS011;69051;52.406;5.280;2023-05-17T10:29:15;10.90;;;1.70;;
79578;SDS011;69051;52.406;5.280;2023-05-17T10:31:42;12.73;;;2.03;;
79578;SDS011;69051;52.406;5.280;2023-05-17T10:34:08;12.48;;;1.98;;
79578;SDS011;69051;52.406;5.280;2023-05-17T10:36:36;11.82;;;1.83;;
79578;SDS011;69051;52.406;5.280;2023-05-17T10:39:04;15.70;;;1.95;;
79578;SDS011;69051;52.406;5.280;2023-05-17T10:41:33;12.32;;;1.80;;
79578;SDS011;69051;52.406;5.280;2023-05-17T10:44:04;13.13;;;2.22;;
79578;SDS011;69051;52.406;5.280;2023-05-17T10:46:33;11.10;;;1.70;;
79578;SDS011;69051;52.406;5.280;2023-05-17T10:48:59;8.98;;;1.75;;
79578;SDS011;69051;52.406;5.280;2023-05-17T10:51:34;9.50;;;1.70;;
79578;SDS011;69051;52.406;5.280;2023-05-17T10:54:03;8.05;;;1.80;;
79578;SDS011;69051;52.406;5.280;2023-05-17T10:56:30;11.00;;;1.70;;
79578;SDS011;69051;52.406;5.280;2023-05-17T10:59:13;9.32;;;1.70;;
79578;SDS011;69051;52.406;5.280;2023-05-17T11:01:57;12.55;;;2.15;;
79578;SDS011;69051;52.406;5.280;2023-05-17T11:04:25;13.80;;;1.70;;
79578;SDS011;69051;52.406;5.280;2023-05-17T11:09:44;9.40;;;1.60;;
79578;SDS011;69051;52.406;5.280;2023-05-17T11:12:39;14.27;;;1.98;;
79578;SDS011;69051;52.406;5.280;2023-05-17T11:15:08;13.50;;;1.73;;
79578;SDS011;69051;52.406;5.280;2023-05-17T11:20:28;12.98;;;1.60;;
79578;SDS011;69051;52.406;5.280;2023-05-17T11:23:06;9.15;;;1.70;;
79578;SDS011;69051;52.406;5.280;2023-05-17T11:25:38;8.88;;;2.33;;
79578;SDS011;69051;52.406;5.280;2023-05-17T11:28:16;9.38;;;1.75;;
79578;SDS011;69051;52.406;5.280;2023-05-17T11:30:43;10.90;;;1.70;;
79578;SDS011;69051;52.406;5.280;2023-05-17T11:33:16;12.15;;;2.28;;
79578;SDS011;69051;52.406;5.280;2023-05-17T11:36:01;13.98;;;1.90;;
79578;SDS011;69051;52.406;5.280;2023-05-17T11:38:29;11.57;;;1.80;;
79578;SDS011;69051;52.406;5.280;2023-05-17T11:40:57;16.23;;;2.65;;
79578;SDS011;69051;52.406;5.280;2023-05-17T11:43:52;8.13;;;1.98;;
79578;SDS011;69051;52.406;5.280;2023-05-17T11:46:20;14.25;;;2.00;;
79578;SDS011;69051;52.406;5.280;2023-05-17T11:48:51;6.60;;;2.08;;
79578;SDS011;69051;52.406;5.280;2023-05-17T11:51:19;12.15;;;1.67;;
79578;SDS011;69051;52.406;5.280;2023-05-17T11:53:49;16.95;;;2.25;;
79578;SDS011;69051;52.406;5.280;2023-05-17T11:56:18;10.02;;;1.83;;
79578;SDS011;69051;52.406;5.280;2023-05-17T11:58:51;21.90;;;2.15;;
79578;SDS011;69051;52.406;5.280;2023-05-17T12:01:19;11.63;;;1.88;;
79578;SDS011;69051;52.406;5.280;2023-05-17T12:03:45;9.85;;;1.85;;
79578;SDS011;69051;52.406;5.280;2023-05-17T12:06:15;11.52;;;1.92;;
79578;SDS011;69051;52.406;5.280;2023-05-17T12:08:43;14.45;;;2.13;;
79578;SDS011;69051;52.406;5.280;2023-05-17T12:11:11;10.95;;;1.90;;
79578;SDS011;69051;52.406;5.280;2023-05-17T12:13:39;17.15;;;2.15;;
79578;SDS011;69051;52.406;5.280;2023-05-17T12:16:09;14.27;;;2.40;;
79578;SDS011;69051;52.406;5.280;2023-05-17T12:18:49;10.35;;;2.20;;
79578;SDS011;69051;52.406;5.280;2023-05-17T12:21:17;9.75;;;2.08;;
79578;SDS011;69051;52.406;5.280;2023-05-17T12:23:44;14.63;;;1.90;;
79578;SDS011;69051;52.406;5.280;2023-05-17T12:26:16;13.85;;;2.38;;
79578;SDS011;69051;52.406;5.280;2023-05-17T12:28:53;8.77;;;2.15;;
79578;SDS011;69051;52.406;5.280;2023-05-17T12:31:23;8.73;;;1.67;;
79578;SDS011;69051;52.406;5.280;2023-05-17T12:33:54;7.60;;;1.50;;
79578;SDS011;69051;52.406;5.280;2023-05-17T12:36:21;12.00;;;1.63;;
79578;SDS011;69051;52.406;5.280;2023-05-17T12:38:49;11.70;;;1.95;;
79578;SDS011;69051;52.406;5.280;2023-05-17T12:41:15;13.32;;;2.15;;
79578;SDS011;69051;52.406;5.280;2023-05-17T12:43:43;9.82;;;1.65;;
79578;SDS011;69051;52.406;5.280;2023-05-17T12:46:11;13.40;;;2.10;;
79578;SDS011;69051;52.406;5.280;2023-05-17T12:48:39;11.45;;;2.00;;
79578;SDS011;69051;52.406;5.280;2023-05-17T12:51:11;8.95;;;2.28;;
79578;SDS011;69051;52.406;5.280;2023-05-17T12:53:39;12.68;;;2.20;;
79578;SDS011;69051;52.406;5.280;2023-05-17T12:56:07;16.13;;;2.25;;
79578;SDS011;69051;52.406;5.280;2023-05-17T12:58:34;14.70;;;1.98;;
79578;SDS011;69051;52.406;5.280;2023-05-17T13:01:01;15.98;;;2.53;;
79578;SDS011;69051;52.406;5.280;2023-05-17T13:03:28;11.40;;;2.13;;
79578;SDS011;69051;52.406;5.280;2023-05-17T13:05:56;13.80;;;2.00;;
79578;SDS011;69051;52.406;5.280;2023-05-17T13:08:27;13.60;;;2.13;;
79578;SDS011;69051;52.406;5.280;2023-05-17T13:11:03;10.15;;;1.50;;
79578;SDS011;69051;52.406;5.280;2023-05-17T13:13:37;10.27;;;1.70;;
79578;SDS011;69051;52.406;5.280;2023-05-17T13:16:04;8.23;;;1.85;;
79578;SDS011;69051;52.406;5.280;2023-05-17T13:18:45;15.27;;;2.10;;
79578;SDS011;69051;52.406;5.280;2023-05-17T13:21:12;8.60;;;2.00;;
79578;SDS011;69051;52.406;5.280;2023-05-17T13:23:42;14.82;;;2.03;;
79578;SDS011;69051;52.406;5.280;2023-05-17T13:26:10;11.30;;;1.83;;
79578;SDS011;69051;52.406;5.280;2023-05-17T13:28:38;10.40;;;1.80;;
79578;SDS011;69051;52.406;5.280;2023-05-17T13:31:05;10.23;;;2.17;;
79578;SDS011;69051;52.406;5.280;2023-05-17T13:33:32;11.68;;;1.75;;
79578;SDS011;69051;52.406;5.280;2023-05-17T13:35:58;11.73;;;2.00;;
79578;SDS011;69051;52.406;5.280;2023-05-17T13:38:25;8.82;;;1.65;;
79578;SDS011;69051;52.406;5.280;2023-05-17T13:40:51;10.50;;;1.85;;
79578;SDS011;69051;52.406;5.280;2023-05-17T13:43:18;15.52;;;1.70;;
79578;SDS011;69051;52.406;5.280;2023-05-17T13:45:45;13.13;;;1.77;;
79578;SDS011;69051;52.406;5.280;2023-05-17T13:48:12;13.20;;;2.08;;
79578;SDS011;69051;52.406;5.280;2023-05-17T13:50:38;9.85;;;2.42;;
79578;SDS011;69051;52.406;5.280;2023-05-17T13:53:06;14.15;;;1.95;;
79578;SDS011;69051;52.406;5.280;2023-05-17T13:55:32;11.27;;;2.75;;
79578;SDS011;69051;52.406;5.280;2023-05-17T13:57:59;7.35;;;1.52;;
79578;SDS011;69051;52.406;5.280;2023-05-17T14:00:25;10.40;;;1.77;;
79578;SDS011;69051;52.406;5.280;2023-05-17T14:02:52;12.13;;;2.15;;
79578;SDS011;69051;52.406;5.280;2023-05-17T14:05:19;10.43;;;2.30;;
79578;SDS011;69051;52.406;5.280;2023-05-17T14:07:45;12.82;;;2.15;;
79578;SDS011;69051;52.406;5.280;2023-05-17T14:10:12;13.20;;;2.20;;
79578;SDS011;69051;52.406;5.280;2023-05-17T14:12:38;13.50;;;2.13;;
79578;SDS011;69051;52.406;5.280;2023-05-17T14:15:06;10.65;;;2.20;;
79578;SDS011;69051;52.406;5.280;2023-05-17T14:17:34;11.57;;;1.85;;
79578;SDS011;69051;52.406;5.280;2023-05-17T14:20:00;8.35;;;1.92;;
79578;SDS011;69051;52.406;5.280;2023-05-17T14:22:28;10.10;;;2.35;;
79578;SDS011;69051;52.406;5.280;2023-05-17T14:24:54;14.50;;;2.42;;
79578;SDS011;69051;52.406;5.280;2023-05-17T14:27:21;8.45;;;2.08;;
79578;SDS011;69051;52.406;5.280;2023-05-17T14:29:47;11.65;;;2.00;;
79578;SDS011;69051;52.406;5.280;2023-05-17T14:32:14;11.25;;;2.10;;
79578;SDS011;69051;52.406;5.280;2023-05-17T14:34:40;11.35;;;2.15;;
79578;SDS011;69051;52.406;5.280;2023-05-17T14:37:07;14.98;;;2.10;;
79578;SDS011;69051;52.406;5.280;2023-05-17T14:39:33;13.93;;;2.28;;
79578;SDS011;69051;52.406;5.280;2023-05-17T14:42:00;10.60;;;1.52;;
79578;SDS011;69051;52.406;5.280;2023-05-17T14:44:27;14.80;;;2.17;;
79578;SDS011;69051;52.406;5.280;2023-05-17T14:46:54;10.73;;;1.73;;
79578;SDS011;69051;52.406;5.280;2023-05-17T14:49:21;13.80;;;1.90;;
79578;SDS011;69051;52.406;5.280;2023-05-17T14:51:47;13.65;;;2.38;;
79578;SDS011;69051;52.406;5.280;2023-05-17T14:54:14;11.98;;;1.92;;
79578;SDS011;69051;52.406;5.280;2023-05-17T14:56:43;9.88;;;2.50;;
79578;SDS011;69051;52.406;5.280;2023-05-17T14:59:10;9.90;;;1.92;;
79578;SDS011;69051;52.406;5.280;2023-05-17T15:01:37;17.02;;;2.17;;
79578;SDS011;69051;52.406;5.280;2023-05-17T15:04:04;7.65;;;1.92;;
79578;SDS011;69051;52.406;5.280;2023-05-17T15:06:30;15.98;;;2.72;;